createdAt,value
2022-11-23T00:00:22.461Z,4.43
2022-11-23T00:02:56.573Z,4.53
2022-11-23T00:05:29.826Z,4.54
2022-11-23T00:08:02.208Z,4.56
2022-11-23T00:10:34.104Z,4.62
2022-11-23T00:13:08.430Z,4.63
2022-11-23T00:15:41.060Z,4.62
2022-11-23T00:18:12.329Z,4.66
2022-11-23T00:20:44.470Z,4.68
2022-11-23T00:23:15.759Z,4.67
2022-11-23T00:25:47.076Z,4.73
2022-11-23T00:28:18.466Z,4.72
2022-11-23T00:30:50.528Z,4.76
2022-11-23T00:33:21.959Z,4.77
2022-11-23T00:36:04.992Z,4.73
2022-11-23T00:38:37.224Z,4.74
2022-11-23T00:41:11.601Z,4.73
2022-11-23T00:43:43.389Z,4.77
2022-11-23T00:46:17.611Z,4.80
2022-11-23T00:48:51.195Z,4.78
2022-11-23T00:51:25.097Z,4.83
2022-11-23T00:53:57.194Z,4.84
2022-11-23T00:56:29.933Z,4.83
2022-11-23T00:59:02.524Z,4.83
2022-11-23T01:01:36.955Z,4.88
2022-11-23T01:04:08.959Z,4.89
2022-11-23T01:06:40.631Z,4.90
2022-11-23T01:09:14.655Z,4.89
2022-11-23T01:11:46.004Z,4.88
2022-11-23T01:14:17.356Z,4.87
2022-11-23T01:16:48.767Z,4.85
2022-11-23T01:19:21.368Z,4.88
2022-11-23T01:21:52.960Z,4.88
2022-11-23T01:24:24.231Z,4.94
2022-11-23T01:26:55.948Z,4.92
2022-11-23T01:29:27.229Z,4.91
2022-11-23T01:31:58.508Z,4.91
2022-11-23T01:34:29.778Z,4.87
2022-11-23T01:37:01.090Z,4.85
2022-11-23T01:39:32.640Z,4.84
2022-11-23T01:42:08.032Z,4.79
2022-11-23T01:44:41.654Z,4.78
2022-11-23T01:47:12.955Z,4.81
2022-11-23T01:49:48.300Z,4.78
2022-11-23T01:52:24.942Z,4.78
2022-11-23T01:55:01.548Z,4.80
2022-11-23T01:57:41.942Z,4.84
2022-11-23T02:00:13.638Z,4.86
2022-11-23T02:02:56.765Z,4.85
2022-11-23T02:05:33.588Z,4.90
2022-11-23T02:08:06.247Z,4.94
2022-11-23T02:10:37.931Z,4.93
2022-11-23T02:13:12.506Z,4.97
2022-11-23T02:15:43.877Z,5.01
2022-11-23T02:18:19.305Z,5.00
2022-11-23T02:20:51.791Z,5.02
2022-11-23T02:23:42.001Z,4.98
2022-11-23T02:26:17.973Z,5.00
2022-11-23T02:28:58.949Z,4.95
2022-11-23T02:31:30.259Z,4.97
2022-11-23T02:34:01.993Z,4.97
2022-11-23T02:36:46.433Z,4.98
2022-11-23T02:39:37.563Z,4.98
2022-11-23T02:42:08.827Z,4.99
2022-11-23T02:44:59.308Z,5.01
2022-11-23T02:47:30.839Z,5.00
2022-11-23T02:50:02.134Z,5.02
2022-11-23T02:52:33.372Z,5.06
2022-11-23T02:55:04.900Z,5.03
2022-11-23T02:57:36.475Z,5.05
2022-11-23T03:00:08.500Z,5.05
2022-11-23T03:02:39.804Z,5.06
2022-11-23T03:05:11.180Z,5.08
2022-11-23T03:07:43.000Z,5.11
2022-11-23T03:10:14.443Z,5.13
2022-11-23T03:12:45.695Z,5.13
2022-11-23T03:15:17.110Z,5.13
2022-11-23T03:17:48.429Z,5.14
2022-11-23T03:20:20.523Z,5.15
2022-11-23T03:22:51.896Z,5.13
2022-11-23T03:25:23.191Z,5.16
2022-11-23T03:27:54.470Z,5.15
2022-11-23T03:30:25.760Z,5.15
2022-11-23T03:32:57.717Z,5.15
2022-11-23T03:35:29.015Z,5.18
2022-11-23T03:38:00.308Z,5.18
2022-11-23T03:40:31.625Z,5.19
2022-11-23T03:43:03.641Z,5.18
2022-11-23T03:45:34.897Z,5.16
2022-11-23T03:48:06.392Z,5.20
2022-11-23T03:50:37.757Z,5.18
2022-11-23T03:53:09.145Z,5.15
2022-11-23T03:55:40.577Z,5.14
2022-11-23T03:58:11.851Z,5.15
2022-11-23T04:00:43.252Z,5.18
2022-11-23T04:03:14.593Z,5.22
2022-11-23T04:05:46.032Z,5.24
2022-11-23T04:08:17.381Z,5.29
2022-11-23T04:10:48.678Z,5.34
2022-11-23T04:13:19.928Z,5.36
2022-11-23T04:15:51.304Z,5.39
2022-11-23T04:18:22.637Z,5.41
2022-11-23T04:20:53.936Z,5.40
2022-11-23T04:23:25.195Z,5.43
2022-11-23T04:25:56.522Z,5.47
2022-11-23T04:28:27.780Z,5.44
2022-11-23T04:30:59.088Z,5.49
2022-11-23T04:33:31.612Z,5.49
2022-11-23T04:36:03.088Z,5.51
2022-11-23T04:38:34.641Z,5.55
2022-11-23T04:41:05.971Z,5.57
2022-11-23T04:43:37.219Z,5.57
2022-11-23T04:46:10.483Z,5.56
2022-11-23T04:48:41.721Z,5.59
2022-11-23T04:51:13.591Z,5.60
2022-11-23T04:53:44.930Z,5.59
2022-11-23T04:56:16.235Z,5.62
2022-11-23T04:58:47.778Z,5.63
2022-11-23T05:01:19.118Z,5.65
2022-11-23T05:03:50.419Z,5.68
2022-11-23T05:06:21.707Z,5.66
2022-11-23T05:08:52.967Z,5.68
2022-11-23T05:11:24.341Z,5.70
2022-11-23T05:13:55.734Z,5.74
2022-11-23T05:16:27.013Z,5.74
2022-11-23T05:18:58.268Z,5.75
2022-11-23T05:21:29.537Z,5.72
2022-11-23T05:24:00.890Z,5.75
2022-11-23T05:26:32.148Z,5.77
2022-11-23T05:29:03.432Z,5.75
2022-11-23T05:31:34.706Z,5.79
2022-11-23T05:34:05.974Z,5.83
2022-11-23T05:36:41.897Z,5.83
2022-11-23T05:39:13.500Z,5.88
2022-11-23T05:41:44.791Z,5.89
2022-11-23T05:44:16.056Z,5.88
2022-11-23T05:46:47.327Z,5.91
2022-11-23T05:49:18.618Z,5.90
2022-11-23T05:51:49.877Z,5.93
2022-11-23T05:54:21.306Z,5.92
2022-11-23T05:56:52.589Z,5.93
2022-11-23T05:59:23.912Z,5.94
2022-11-23T06:01:55.187Z,5.89
2022-11-23T06:04:26.520Z,5.89
2022-11-23T06:07:00.834Z,5.94
2022-11-23T06:09:32.515Z,5.95
2022-11-23T06:12:04.173Z,5.99
2022-11-23T06:14:35.513Z,6.01
2022-11-23T06:17:06.802Z,6.01
2022-11-23T06:19:38.115Z,6.01
2022-11-23T06:22:09.433Z,6.01
2022-11-23T06:24:41.287Z,6.01
2022-11-23T06:27:18.146Z,6.04
2022-11-23T06:29:49.849Z,6.07
2022-11-23T06:32:21.123Z,6.06
2022-11-23T06:34:53.875Z,6.04
2022-11-23T06:37:26.912Z,6.07
2022-11-23T06:39:58.197Z,6.05
2022-11-23T06:42:38.768Z,6.09
2022-11-23T06:45:10.811Z,6.05
2022-11-23T06:47:42.102Z,6.07
2022-11-23T06:50:14.560Z,6.05
2022-11-23T06:52:45.823Z,6.02
2022-11-23T06:55:17.159Z,5.99
2022-11-23T06:57:48.475Z,5.92
2022-11-23T07:00:20.051Z,5.89
2022-11-23T07:02:52.925Z,5.86
2022-11-23T07:05:24.669Z,5.81
2022-11-23T07:07:56.842Z,5.80
2022-11-23T07:10:28.254Z,5.79
2022-11-23T07:13:06.654Z,5.79
2022-11-23T07:15:39.255Z,5.81
2022-11-23T07:18:11.917Z,5.83
2022-11-23T07:20:43.289Z,5.86
2022-11-23T07:23:14.815Z,5.87
2022-11-23T07:25:46.329Z,5.86
2022-11-23T07:28:18.265Z,5.88
2022-11-23T07:30:51.472Z,5.88
2022-11-23T07:33:22.749Z,5.96
2022-11-23T07:35:54.021Z,6.00
2022-11-23T07:38:25.280Z,6.04
2022-11-23T07:40:58.836Z,6.07
2022-11-23T07:43:30.601Z,6.10
2022-11-23T07:46:01.859Z,6.16
2022-11-23T07:48:36.384Z,6.22
2022-11-23T07:51:08.168Z,6.31
2022-11-23T07:53:39.423Z,6.28
2022-11-23T07:56:11.037Z,6.36
2022-11-23T07:58:42.324Z,6.45
2022-11-23T08:01:18.351Z,6.49
2022-11-23T08:03:49.798Z,6.46
2022-11-23T08:06:21.135Z,6.54
2022-11-23T08:08:52.410Z,6.61
2022-11-23T08:11:23.675Z,6.67
2022-11-23T08:13:54.956Z,6.72
2022-11-23T08:16:26.319Z,6.83
2022-11-23T08:18:57.597Z,6.90
2022-11-23T08:21:28.947Z,6.96
2022-11-23T08:24:00.207Z,7.02
2022-11-23T08:26:31.510Z,6.98
2022-11-23T08:29:03.270Z,6.93
2022-11-23T08:31:34.683Z,6.94
2022-11-23T08:34:05.993Z,6.91
2022-11-23T08:36:37.433Z,6.91
2022-11-23T08:39:11.021Z,6.97
2022-11-23T08:41:42.311Z,7.03
2022-11-23T08:44:13.689Z,7.06
2022-11-23T08:46:44.958Z,7.14
2022-11-23T08:49:16.220Z,7.14
2022-11-23T08:51:50.219Z,7.18
2022-11-23T08:54:24.104Z,7.24
2022-11-23T08:56:55.465Z,7.30
2022-11-23T08:59:26.721Z,7.38
2022-11-23T09:01:57.991Z,7.39
2022-11-23T09:04:30.849Z,7.43
2022-11-23T09:07:03.146Z,7.41
2022-11-23T09:09:34.473Z,7.36
2022-11-23T09:12:06.151Z,7.27
2022-11-23T09:14:37.502Z,7.25
2022-11-23T09:17:08.819Z,7.22
2022-11-23T09:19:40.465Z,7.22
2022-11-23T09:22:11.733Z,7.22
2022-11-23T09:24:43.102Z,7.21
2022-11-23T09:27:14.441Z,7.31
2022-11-23T09:29:45.776Z,7.46
2022-11-23T09:32:17.717Z,7.58
2022-11-23T09:34:48.987Z,7.73
2022-11-23T09:37:20.445Z,7.82
2022-11-23T09:39:51.738Z,7.98
2022-11-23T09:42:34.903Z,8.10
2022-11-23T09:45:26.090Z,8.12
2022-11-23T09:48:03.091Z,8.11
2022-11-23T09:50:46.654Z,8.13
2022-11-23T09:53:25.479Z,8.24
2022-11-23T09:55:57.776Z,8.27
2022-11-23T09:58:36.290Z,8.37
2022-11-23T10:01:12.779Z,8.51
2022-11-23T10:03:48.882Z,8.61
2022-11-23T10:06:34.417Z,8.77
2022-11-23T10:09:42.973Z,8.91
2022-11-23T10:12:58.704Z,8.97
2022-11-23T10:15:38.884Z,8.96
2022-11-23T10:18:38.746Z,8.94
2022-11-23T10:21:24.032Z,8.97
2022-11-23T10:24:00.712Z,8.96
2022-11-23T10:26:36.513Z,9.01
2022-11-23T10:29:17.310Z,9.06
2022-11-23T10:31:55.498Z,9.13
2022-11-23T10:34:51.020Z,9.18
2022-11-23T10:37:22.472Z,9.15
2022-11-23T10:39:53.824Z,9.13
2022-11-23T10:42:33.795Z,9.12
2022-11-23T10:45:05.808Z,9.14
2022-11-23T10:47:40.828Z,9.17
2022-11-23T10:50:20.921Z,9.18
2022-11-23T10:53:19.925Z,9.26
2022-11-23T10:55:54.950Z,9.31
2022-11-23T10:58:35.031Z,9.36
2022-11-23T11:01:20.162Z,9.36
2022-11-23T11:03:53.468Z,9.38
2022-11-23T11:06:27.649Z,9.43
2022-11-23T11:09:03.744Z,9.48
2022-11-23T11:11:39.633Z,9.52
2022-11-23T11:14:19.570Z,9.58
2022-11-23T11:16:57.924Z,9.58
2022-11-23T11:19:34.601Z,9.57
2022-11-23T11:22:35.677Z,9.59
2022-11-23T11:25:07.816Z,9.66
2022-11-23T11:27:51.433Z,9.68
2022-11-23T11:30:24.786Z,9.77
2022-11-23T11:33:09.077Z,9.80
2022-11-23T11:35:45.993Z,9.74
2022-11-23T11:38:37.655Z,9.77
2022-11-23T11:41:11.908Z,9.82
2022-11-23T11:43:50.287Z,9.78
2022-11-23T11:46:31.969Z,9.78
2022-11-23T11:49:07.507Z,9.80
2022-11-23T11:51:47.369Z,9.79
2022-11-23T11:54:28.071Z,9.82
2022-11-23T11:57:16.891Z,9.86
2022-11-23T11:59:53.066Z,9.87
2022-11-23T12:02:31.300Z,9.88
2022-11-23T12:05:24.626Z,9.93
2022-11-23T12:08:15.856Z,9.91
2022-11-23T12:10:54.115Z,9.94
2022-11-23T12:13:38.009Z,9.99
2022-11-23T12:16:21.244Z,10.05
2022-11-23T12:19:17.689Z,10.10
2022-11-23T12:22:02.965Z,10.12
2022-11-23T12:25:11.412Z,10.08
2022-11-23T12:27:56.433Z,10.02
2022-11-23T12:30:38.016Z,9.96
2022-11-23T12:33:27.328Z,9.87
2022-11-23T12:36:29.691Z,9.85
2022-11-23T12:39:39.808Z,9.93
2022-11-23T12:42:27.538Z,9.99
2022-11-23T12:45:20.020Z,10.04
2022-11-23T12:48:03.324Z,10.07
2022-11-23T12:50:50.830Z,10.14
2022-11-23T12:53:51.100Z,10.23
2022-11-23T12:56:45.318Z,10.23
2022-11-23T12:59:18.640Z,10.24
2022-11-23T13:02:00.290Z,10.29
2022-11-23T13:04:47.950Z,10.26
2022-11-23T13:07:49.292Z,10.34
2022-11-23T13:10:27.216Z,10.38
2022-11-23T13:13:35.361Z,10.44
2022-11-23T13:16:33.287Z,10.45
2022-11-23T13:19:23.304Z,10.50
2022-11-23T13:21:55.080Z,10.49
2022-11-23T13:24:35.776Z,10.50
2022-11-23T13:27:13.225Z,10.46
2022-11-23T13:29:50.697Z,10.42
2022-11-23T13:32:40.056Z,10.43
2022-11-23T13:35:17.361Z,10.42
2022-11-23T13:37:57.816Z,10.35
2022-11-23T13:40:34.298Z,10.31
2022-11-23T13:43:15.936Z,10.32
2022-11-23T13:46:32.103Z,10.32
2022-11-23T13:49:03.466Z,10.24
2022-11-23T13:51:35.425Z,10.26
2022-11-23T13:54:21.839Z,10.26
2022-11-23T13:57:01.580Z,10.25
2022-11-23T13:59:34.665Z,10.26
2022-11-23T14:02:09.294Z,10.32
2022-11-23T14:04:46.857Z,10.38
2022-11-23T14:07:43.084Z,10.41
2022-11-23T14:10:22.624Z,10.51
2022-11-23T14:13:19.128Z,10.52
2022-11-23T14:16:01.838Z,10.51
2022-11-23T14:18:52.375Z,10.44
2022-11-23T14:21:44.089Z,10.29
2022-11-23T14:24:39.934Z,10.21
2022-11-23T14:27:47.158Z,10.03
2022-11-23T14:30:24.439Z,9.88
2022-11-23T14:33:26.665Z,9.67
2022-11-23T14:36:19.860Z,9.51
2022-11-23T14:39:23.576Z,9.30
2022-11-23T14:41:59.852Z,9.14
2022-11-23T14:44:38.180Z,8.99
2022-11-23T14:47:11.349Z,8.87
2022-11-23T14:49:50.877Z,8.69
2022-11-23T14:52:26.168Z,8.61
2022-11-23T14:55:00.028Z,8.53
2022-11-23T14:57:41.188Z,8.40
2022-11-23T15:00:29.362Z,8.31
2022-11-23T15:03:34.375Z,8.20
2022-11-23T15:06:10.481Z,8.12
2022-11-23T15:08:49.970Z,8.03
2022-11-23T15:11:26.224Z,7.87
2022-11-23T15:14:03.664Z,7.86
2022-11-23T15:16:38.987Z,7.79
2022-11-23T15:19:27.497Z,7.67
2022-11-23T15:21:59.817Z,7.63
2022-11-23T15:24:31.768Z,7.52
2022-11-23T15:27:10.795Z,7.45
2022-11-23T15:29:51.799Z,7.39
2022-11-23T15:32:31.308Z,7.39
2022-11-23T15:35:07.818Z,7.29
2022-11-23T15:37:47.665Z,7.29
2022-11-23T15:40:19.392Z,7.24
2022-11-23T15:42:51.343Z,7.18
2022-11-23T15:45:41.418Z,7.15
2022-11-23T15:48:33.468Z,7.03
2022-11-23T15:51:08.321Z,6.97
2022-11-23T15:53:50.205Z,6.92
2022-11-23T15:56:35.916Z,6.81
2022-11-23T15:59:22.483Z,6.77
2022-11-23T16:01:55.095Z,6.65
2022-11-23T16:04:42.194Z,6.62
2022-11-23T16:07:22.601Z,6.54
2022-11-23T16:10:16.343Z,6.44
2022-11-23T16:12:53.565Z,6.39
2022-11-23T16:15:37.444Z,6.34
2022-11-23T16:18:17.718Z,6.31
2022-11-23T16:20:55.237Z,6.29
2022-11-23T16:23:41.293Z,6.27
2022-11-23T16:26:13.892Z,6.21
2022-11-23T16:28:56.702Z,6.16
2022-11-23T16:31:41.520Z,6.14
2022-11-23T16:34:17.139Z,6.10
2022-11-23T16:36:48.988Z,6.08
2022-11-23T16:39:20.347Z,6.06
2022-11-23T16:41:52.325Z,6.06
2022-11-23T16:44:23.615Z,6.09
2022-11-23T16:46:54.939Z,6.08
2022-11-23T16:49:26.227Z,6.10
2022-11-23T16:51:57.689Z,6.09
2022-11-23T16:54:28.953Z,6.09
2022-11-23T16:57:00.342Z,6.10
2022-11-23T16:59:32.140Z,6.10
2022-11-23T17:02:03.587Z,6.10
2022-11-23T17:04:35.078Z,6.03
2022-11-23T17:07:06.597Z,6.07
2022-11-23T17:09:38.173Z,6.00
2022-11-23T17:12:14.959Z,6.05
2022-11-23T17:14:50.095Z,6.02
2022-11-23T17:17:22.393Z,6.01
2022-11-23T17:19:53.645Z,5.96
2022-11-23T17:22:24.984Z,5.87
2022-11-23T17:24:56.287Z,5.90
2022-11-23T17:27:30.404Z,5.85
2022-11-23T17:30:06.469Z,5.88
2022-11-23T17:32:37.872Z,5.85
2022-11-23T17:35:09.161Z,5.79
2022-11-23T17:37:40.749Z,5.74
2022-11-23T17:40:16.708Z,5.77
2022-11-23T17:42:48.219Z,5.76
2022-11-23T17:45:19.994Z,5.73
2022-11-23T17:47:51.291Z,5.69
2022-11-23T17:50:23.568Z,5.70
2022-11-23T17:52:54.820Z,5.69
2022-11-23T17:55:26.139Z,5.66
2022-11-23T17:57:57.426Z,5.61
2022-11-23T18:00:29.640Z,5.58
2022-11-23T18:03:04.056Z,5.57
2022-11-23T18:05:35.362Z,5.55
2022-11-23T18:08:06.622Z,5.50
2022-11-23T18:10:37.905Z,5.42
2022-11-23T18:13:09.228Z,5.35
2022-11-23T18:15:40.510Z,5.35
2022-11-23T18:18:12.151Z,5.32
2022-11-23T18:20:43.483Z,5.25
2022-11-23T18:23:14.765Z,5.22
2022-11-23T18:25:46.189Z,5.15
2022-11-23T18:28:18.683Z,5.14
2022-11-23T18:30:50.144Z,5.09
2022-11-23T18:33:22.178Z,5.05
2022-11-23T18:35:53.473Z,4.96
2022-11-23T18:38:24.783Z,4.93
2022-11-23T18:40:56.067Z,4.93
2022-11-23T18:43:27.703Z,4.87
2022-11-23T18:45:59.126Z,4.83
2022-11-23T18:48:30.466Z,4.78
2022-11-23T18:51:03.011Z,4.80
2022-11-23T18:53:34.323Z,4.75
2022-11-23T18:56:07.013Z,4.77
2022-11-23T18:58:41.865Z,4.74
2022-11-23T19:01:21.518Z,4.70
2022-11-23T19:03:53.365Z,4.66
2022-11-23T19:06:24.678Z,4.63
2022-11-23T19:08:58.952Z,4.57
2022-11-23T19:11:30.279Z,4.56
2022-11-23T19:14:02.209Z,4.48
2022-11-23T19:16:33.573Z,4.42
2022-11-23T19:19:06.952Z,4.40
2022-11-23T19:21:39.040Z,4.36
2022-11-23T19:24:10.388Z,4.36
2022-11-23T19:26:41.753Z,4.34
2022-11-23T19:29:13.672Z,4.31
2022-11-23T19:31:45.105Z,4.23
2022-11-23T19:34:16.382Z,4.21
2022-11-23T19:36:47.710Z,4.23
2022-11-23T19:39:19.004Z,4.17
2022-11-23T19:41:50.455Z,4.19
2022-11-23T19:44:21.801Z,4.11
2022-11-23T19:46:53.184Z,4.08
2022-11-23T19:49:25.572Z,4.07
2022-11-23T19:51:56.926Z,4.06
2022-11-23T19:54:28.258Z,4.02
2022-11-23T19:56:59.557Z,4.07
2022-11-23T19:59:31.371Z,4.08
2022-11-23T20:02:03.117Z,4.14
2022-11-23T20:04:34.637Z,4.19
2022-11-23T20:07:05.997Z,4.27
2022-11-23T20:09:38.036Z,4.33
2022-11-23T20:12:09.273Z,4.36
2022-11-23T20:14:40.548Z,4.36
2022-11-23T20:17:12.232Z,4.41
2022-11-23T20:19:43.495Z,4.44
2022-11-23T20:22:14.791Z,4.48
2022-11-23T20:24:46.081Z,4.56
2022-11-23T20:27:17.459Z,4.67
2022-11-23T20:29:48.718Z,4.78
2022-11-23T20:32:19.991Z,4.82
2022-11-23T20:34:51.277Z,4.99
2022-11-23T20:37:23.302Z,5.06
2022-11-23T20:39:54.710Z,5.14
2022-11-23T20:42:25.961Z,5.23
2022-11-23T20:44:57.262Z,5.31
2022-11-23T20:47:28.566Z,5.35
2022-11-23T20:50:00.101Z,5.43
2022-11-23T20:52:31.514Z,5.45
2022-11-23T20:55:02.784Z,5.50
2022-11-23T20:57:34.039Z,5.58
2022-11-23T21:00:06.143Z,5.60
2022-11-23T21:02:37.566Z,5.67
2022-11-23T21:05:09.135Z,5.71
2022-11-23T21:07:40.578Z,5.77
2022-11-23T21:10:32.409Z,5.84
2022-11-23T21:13:21.983Z,5.85
2022-11-23T21:15:53.304Z,5.90
2022-11-23T21:18:24.604Z,5.95
2022-11-23T21:20:56.312Z,5.96
2022-11-23T21:23:33.908Z,6.05
2022-11-23T21:26:06.079Z,6.09
2022-11-23T21:28:37.351Z,6.10
2022-11-23T21:31:09.792Z,6.17
2022-11-23T21:33:42.785Z,6.21
2022-11-23T21:36:14.329Z,6.25
2022-11-23T21:38:45.626Z,6.28
2022-11-23T21:41:18.035Z,6.29
2022-11-23T21:43:53.553Z,6.31
2022-11-23T21:46:25.247Z,6.34
2022-11-23T21:48:58.349Z,6.37
2022-11-23T21:51:30.817Z,6.38
2022-11-23T21:54:05.177Z,6.41
2022-11-23T21:56:36.676Z,6.38
2022-11-23T21:59:08.274Z,6.41
2022-11-23T22:01:40.631Z,6.46
2022-11-23T22:04:15.082Z,6.43
2022-11-23T22:06:46.516Z,6.47
2022-11-23T22:09:18.089Z,6.51
2022-11-23T22:11:49.332Z,6.52
2022-11-23T22:14:21.914Z,6.52
2022-11-23T22:16:54.272Z,6.55
2022-11-23T22:19:25.565Z,6.61
2022-11-23T22:21:56.815Z,6.61
2022-11-23T22:24:28.112Z,6.64
2022-11-23T22:26:59.523Z,6.64
2022-11-23T22:29:30.833Z,6.67
2022-11-23T22:32:02.174Z,6.69
2022-11-23T22:34:35.164Z,6.68
2022-11-23T22:37:10.571Z,6.64
2022-11-23T22:39:42.272Z,6.67
2022-11-23T22:42:14.953Z,6.65
2022-11-23T22:44:46.556Z,6.65
2022-11-23T22:47:18.005Z,6.68
2022-11-23T22:49:49.293Z,6.71
2022-11-23T22:52:20.641Z,6.67
2022-11-23T22:54:51.885Z,6.74
2022-11-23T22:57:23.136Z,6.74
2022-11-23T22:59:54.362Z,6.68
2022-11-23T23:02:25.808Z,6.68
2022-11-23T23:04:57.224Z,6.68
2022-11-23T23:07:31.191Z,6.65
2022-11-23T23:10:02.600Z,6.59
2022-11-23T23:12:33.864Z,6.57
2022-11-23T23:15:05.467Z,6.56
2022-11-23T23:17:36.815Z,6.52
2022-11-23T23:20:08.770Z,6.51
2022-11-23T23:22:40.041Z,6.50
2022-11-23T23:25:11.300Z,6.44
2022-11-23T23:27:42.556Z,6.43
2022-11-23T23:30:14.074Z,6.45
2022-11-23T23:32:45.695Z,6.43
2022-11-23T23:35:16.944Z,6.43
2022-11-23T23:37:51.517Z,6.38
2022-11-23T23:40:23.027Z,6.39
2022-11-23T23:42:54.693Z,6.35
2022-11-23T23:45:25.983Z,6.30
2022-11-23T23:47:58.805Z,6.33
2022-11-23T23:50:30.052Z,6.36
2022-11-23T23:53:01.361Z,6.33
2022-11-23T23:55:32.612Z,6.32
2022-11-23T23:58:03.961Z,6.29
